sensor_id;sensor_type;location;lat;lon;timestamp;temperature;humidity
61253;DHT22;47127;47.516;8.596;2022-11-04T00:01:31;11.20;99.90
61253;DHT22;47127;47.516;8.596;2022-11-04T00:03:56;11.20;99.90
61253;DHT22;47127;47.516;8.596;2022-11-04T00:06:22;11.20;99.90
61253;DHT22;47127;47.516;8.596;2022-11-04T00:08:48;11.20;99.90
61253;DHT22;47127;47.516;8.596;2022-11-04T00:11:14;11.10;99.90
61253;DHT22;47127;47.516;8.596;2022-11-04T00:13:58;11.20;99.90
61253;DHT22;47127;47.516;8.596;2022-11-04T00:16:23;11.10;99.90
61253;DHT22;47127;47.516;8.596;2022-11-04T00:19:07;11.10;99.90
61253;DHT22;47127;47.516;8.596;2022-11-04T00:21:32;11.00;99.90
61253;DHT22;47127;47.516;8.596;2022-11-04T00:24:16;10.90;99.90
61253;DHT22;47127;47.516;8.596;2022-11-04T00:27:01;11.00;99.90
61253;DHT22;47127;47.516;8.596;2022-11-04T00:29:45;11.00;99.90
61253;DHT22;47127;47.516;8.596;2022-11-04T00:32:10;10.90;99.90
61253;DHT22;47127;47.516;8.596;2022-11-04T00:34:55;10.90;99.90
61253;DHT22;47127;47.516;8.596;2022-11-04T00:37:20;10.90;99.90
61253;DHT22;47127;47.516;8.596;2022-11-04T00:39:46;11.00;99.90
61253;DHT22;47127;47.516;8.596;2022-11-04T00:42:11;10.90;99.90
61253;DHT22;47127;47.516;8.596;2022-11-04T00:44:36;10.90;99.90
61253;DHT22;47127;47.516;8.596;2022-11-04T00:47:02;10.90;99.90
61253;DHT22;47127;47.516;8.596;2022-11-04T00:49:27;10.90;99.90
61253;DHT22;47127;47.516;8.596;2022-11-04T00:51:53;10.90;99.90
61253;DHT22;47127;47.516;8.596;2022-11-04T00:54:18;10.80;99.90
61253;DHT22;47127;47.516;8.596;2022-11-04T00:56:44;10.80;99.90
61253;DHT22;47127;47.516;8.596;2022-11-04T00:59:10;10.80;99.90
61253;DHT22;47127;47.516;8.596;2022-11-04T01:01:35;10.80;99.90
61253;DHT22;47127;47.516;8.596;2022-11-04T01:04:01;10.80;99.90
61253;DHT22;47127;47.516;8.596;2022-11-04T01:06:26;10.80;99.90
61253;DHT22;47127;47.516;8.596;2022-11-04T01:08:55;10.80;99.90
61253;DHT22;47127;47.516;8.596;2022-11-04T01:11:21;10.80;99.90
61253;DHT22;47127;47.516;8.596;2022-11-04T01:13:49;10.80;99.90
61253;DHT22;47127;47.516;8.596;2022-11-04T01:16:14;10.80;99.90
61253;DHT22;47127;47.516;8.596;2022-11-04T01:18:40;10.80;99.90
61253;DHT22;47127;47.516;8.596;2022-11-04T01:21:06;10.80;99.90
61253;DHT22;47127;47.516;8.596;2022-11-04T01:23:35;10.90;99.90
61253;DHT22;47127;47.516;8.596;2022-11-04T01:26:04;10.90;99.90
61253;DHT22;47127;47.516;8.596;2022-11-04T01:28:30;10.90;99.90
61253;DHT22;47127;47.516;8.596;2022-11-04T01:30:56;10.90;99.90
61253;DHT22;47127;47.516;8.596;2022-11-04T01:33:21;10.90;99.90
61253;DHT22;47127;47.516;8.596;2022-11-04T01:35:46;10.80;99.90
61253;DHT22;47127;47.516;8.596;2022-11-04T01:38:12;10.80;99.90
61253;DHT22;47127;47.516;8.596;2022-11-04T01:40:38;10.70;99.90
61253;DHT22;47127;47.516;8.596;2022-11-04T01:43:08;10.80;99.90
61253;DHT22;47127;47.516;8.596;2022-11-04T01:45:35;10.80;99.90
61253;DHT22;47127;47.516;8.596;2022-11-04T01:48:04;10.80;99.90
61253;DHT22;47127;47.516;8.596;2022-11-04T01:50:32;10.80;99.90
61253;DHT22;47127;47.516;8.596;2022-11-04T01:53:05;10.80;99.90
61253;DHT22;47127;47.516;8.596;2022-11-04T01:55:33;10.80;99.90
61253;DHT22;47127;47.516;8.596;2022-11-04T01:58:03;10.70;99.90
61253;DHT22;47127;47.516;8.596;2022-11-04T02:00:30;10.60;99.90
61253;DHT22;47127;47.516;8.596;2022-11-04T02:03:10;10.50;99.90
61253;DHT22;47127;47.516;8.596;2022-11-04T02:05:36;10.60;99.90
61253;DHT22;47127;47.516;8.596;2022-11-04T02:08:03;10.60;99.90
61253;DHT22;47127;47.516;8.596;2022-11-04T02:10:29;10.40;99.90
61253;DHT22;47127;47.516;8.596;2022-11-04T02:12:56;10.50;99.90
61253;DHT22;47127;47.516;8.596;2022-11-04T02:20:43;10.50;99.90
61253;DHT22;47127;47.516;8.596;2022-11-04T02:25:44;10.30;99.90
61253;DHT22;47127;47.516;8.596;2022-11-04T02:30:49;10.40;99.90
61253;DHT22;47127;47.516;8.596;2022-11-04T02:38:31;10.50;99.90
61253;DHT22;47127;47.516;8.596;2022-11-04T02:43:35;10.60;99.90
61253;DHT22;47127;47.516;8.596;2022-11-04T02:46:05;10.60;99.90
61253;DHT22;47127;47.516;8.596;2022-11-04T02:51:10;10.60;99.90
61253;DHT22;47127;47.516;8.596;2022-11-04T02:53:42;10.60;99.90
61253;DHT22;47127;47.516;8.596;2022-11-04T02:56:09;10.60;99.90
61253;DHT22;47127;47.516;8.596;2022-11-04T02:58:36;10.60;99.90
61253;DHT22;47127;47.516;8.596;2022-11-04T03:01:04;10.60;99.90
61253;DHT22;47127;47.516;8.596;2022-11-04T03:03:36;10.50;99.90
61253;DHT22;47127;47.516;8.596;2022-11-04T03:06:02;10.50;99.90
61253;DHT22;47127;47.516;8.596;2022-11-04T03:08:30;10.50;99.90
61253;DHT22;47127;47.516;8.596;2022-11-04T03:10:58;10.50;99.90
61253;DHT22;47127;47.516;8.596;2022-11-04T03:13:28;10.50;99.90
61253;DHT22;47127;47.516;8.596;2022-11-04T03:15:59;10.40;99.90
61253;DHT22;47127;47.516;8.596;2022-11-04T03:20:55;10.40;99.90
61253;DHT22;47127;47.516;8.596;2022-11-04T03:23:22;10.40;99.90
61253;DHT22;47127;47.516;8.596;2022-11-04T03:25:49;10.40;99.90
61253;DHT22;47127;47.516;8.596;2022-11-04T03:28:22;10.40;99.90
61253;DHT22;47127;47.516;8.596;2022-11-04T03:30:50;10.40;99.90
61253;DHT22;47127;47.516;8.596;2022-11-04T03:33:23;10.50;99.90
61253;DHT22;47127;47.516;8.596;2022-11-04T03:35:49;10.40;99.90
61253;DHT22;47127;47.516;8.596;2022-11-04T03:38:15;10.40;99.90
61253;DHT22;47127;47.516;8.596;2022-11-04T03:40:40;10.30;99.90
61253;DHT22;47127;47.516;8.596;2022-11-04T03:43:13;10.30;99.90
61253;DHT22;47127;47.516;8.596;2022-11-04T03:45:40;10.30;99.90
61253;DHT22;47127;47.516;8.596;2022-11-04T03:48:06;10.30;99.90
61253;DHT22;47127;47.516;8.596;2022-11-04T03:50:32;10.40;99.90
61253;DHT22;47127;47.516;8.596;2022-11-04T03:53:00;10.40;99.90
61253;DHT22;47127;47.516;8.596;2022-11-04T03:55:38;10.30;99.90
61253;DHT22;47127;47.516;8.596;2022-11-04T03:58:17;10.30;99.90
61253;DHT22;47127;47.516;8.596;2022-11-04T04:00:48;10.40;99.90
61253;DHT22;47127;47.516;8.596;2022-11-04T04:03:20;10.40;99.90
61253;DHT22;47127;47.516;8.596;2022-11-04T04:05:50;10.40;99.90
61253;DHT22;47127;47.516;8.596;2022-11-04T04:08:21;10.40;99.90
61253;DHT22;47127;47.516;8.596;2022-11-04T04:11:07;10.40;99.90
61253;DHT22;47127;47.516;8.596;2022-11-04T04:16:16;10.40;99.90
61253;DHT22;47127;47.516;8.596;2022-11-04T04:21:08;10.30;99.90
61253;DHT22;47127;47.516;8.596;2022-11-04T04:23:35;10.40;99.90
61253;DHT22;47127;47.516;8.596;2022-11-04T04:26:20;10.20;99.90
61253;DHT22;47127;47.516;8.596;2022-11-04T04:29:05;10.20;99.90
61253;DHT22;47127;47.516;8.596;2022-11-04T04:31:31;10.20;99.90
61253;DHT22;47127;47.516;8.596;2022-11-04T04:34:18;10.20;99.90
61253;DHT22;47127;47.516;8.596;2022-11-04T04:36:45;10.10;99.90
61253;DHT22;47127;47.516;8.596;2022-11-04T04:39:11;10.10;99.90
61253;DHT22;47127;47.516;8.596;2022-11-04T04:41:56;10.20;99.90
61253;DHT22;47127;47.516;8.596;2022-11-04T04:44:40;10.20;99.90
61253;DHT22;47127;47.516;8.596;2022-11-04T04:47:49;10.10;99.90
61253;DHT22;47127;47.516;8.596;2022-11-04T04:50:17;10.10;99.90
61253;DHT22;47127;47.516;8.596;2022-11-04T04:52:46;10.20;99.90
61253;DHT22;47127;47.516;8.596;2022-11-04T04:55:12;10.10;99.90
61253;DHT22;47127;47.516;8.596;2022-11-04T04:57:38;10.10;99.90
61253;DHT22;47127;47.516;8.596;2022-11-04T05:00:05;10.10;99.90
61253;DHT22;47127;47.516;8.596;2022-11-04T05:02:30;10.10;99.90
61253;DHT22;47127;47.516;8.596;2022-11-04T05:04:56;10.10;99.90
61253;DHT22;47127;47.516;8.596;2022-11-04T05:07:23;10.10;99.90
61253;DHT22;47127;47.516;8.596;2022-11-04T05:09:49;10.10;99.90
61253;DHT22;47127;47.516;8.596;2022-11-04T05:12:14;10.10;99.90
61253;DHT22;47127;47.516;8.596;2022-11-04T05:14:40;10.00;99.90
61253;DHT22;47127;47.516;8.596;2022-11-04T05:17:05;10.00;99.90
61253;DHT22;47127;47.516;8.596;2022-11-04T05:19:31;9.90;99.90
61253;DHT22;47127;47.516;8.596;2022-11-04T05:21:56;10.00;99.90
61253;DHT22;47127;47.516;8.596;2022-11-04T05:24:22;9.90;99.90
61253;DHT22;47127;47.516;8.596;2022-11-04T05:26:48;10.00;99.90
61253;DHT22;47127;47.516;8.596;2022-11-04T05:29:13;10.00;99.90
61253;DHT22;47127;47.516;8.596;2022-11-04T05:31:39;10.00;99.90
61253;DHT22;47127;47.516;8.596;2022-11-04T05:34:04;10.00;99.90
61253;DHT22;47127;47.516;8.596;2022-11-04T05:36:30;10.00;99.90
61253;DHT22;47127;47.516;8.596;2022-11-04T05:38:57;9.90;99.90
61253;DHT22;47127;47.516;8.596;2022-11-04T05:41:23;9.90;99.90
61253;DHT22;47127;47.516;8.596;2022-11-04T05:44:00;9.80;99.90
61253;DHT22;47127;47.516;8.596;2022-11-04T05:46:26;9.90;99.90
61253;DHT22;47127;47.516;8.596;2022-11-04T05:48:52;9.80;99.90
61253;DHT22;47127;47.516;8.596;2022-11-04T05:51:19;9.70;99.90
61253;DHT22;47127;47.516;8.596;2022-11-04T05:53:45;9.60;99.90
61253;DHT22;47127;47.516;8.596;2022-11-04T05:56:10;9.60;99.90
61253;DHT22;47127;47.516;8.596;2022-11-04T05:58:35;9.60;99.90
61253;DHT22;47127;47.516;8.596;2022-11-04T06:03:45;9.70;99.90
61253;DHT22;47127;47.516;8.596;2022-11-04T06:06:10;9.70;99.90
61253;DHT22;47127;47.516;8.596;2022-11-04T06:08:36;9.60;99.90
61253;DHT22;47127;47.516;8.596;2022-11-04T06:11:01;9.60;99.90
61253;DHT22;47127;47.516;8.596;2022-11-04T06:13:29;9.60;99.90
61253;DHT22;47127;47.516;8.596;2022-11-04T06:15:55;9.60;99.90
61253;DHT22;47127;47.516;8.596;2022-11-04T06:18:20;9.60;99.90
61253;DHT22;47127;47.516;8.596;2022-11-04T06:20:46;9.60;99.90
61253;DHT22;47127;47.516;8.596;2022-11-04T06:23:11;9.60;99.90
61253;DHT22;47127;47.516;8.596;2022-11-04T06:25:36;9.60;99.90
61253;DHT22;47127;47.516;8.596;2022-11-04T06:28:02;9.60;99.90
61253;DHT22;47127;47.516;8.596;2022-11-04T06:30:27;9.50;99.90
61253;DHT22;47127;47.516;8.596;2022-11-04T06:32:53;9.50;99.90
61253;DHT22;47127;47.516;8.596;2022-11-04T06:35:18;9.50;99.90
61253;DHT22;47127;47.516;8.596;2022-11-04T06:37:44;9.50;99.90
61253;DHT22;47127;47.516;8.596;2022-11-04T06:40:09;9.50;99.90
61253;DHT22;47127;47.516;8.596;2022-11-04T06:42:35;9.50;99.90
61253;DHT22;47127;47.516;8.596;2022-11-04T06:45:00;9.60;99.90
61253;DHT22;47127;47.516;8.596;2022-11-04T06:47:26;9.70;99.90
61253;DHT22;47127;47.516;8.596;2022-11-04T06:49:51;9.60;99.90
61253;DHT22;47127;47.516;8.596;2022-11-04T06:52:17;9.60;99.90
61253;DHT22;47127;47.516;8.596;2022-11-04T06:54:42;9.70;99.90
61253;DHT22;47127;47.516;8.596;2022-11-04T06:57:09;9.70;99.90
61253;DHT22;47127;47.516;8.596;2022-11-04T06:59:34;9.70;99.90
61253;DHT22;47127;47.516;8.596;2022-11-04T07:02:00;9.70;99.90
61253;DHT22;47127;47.516;8.596;2022-11-04T07:04:25;9.70;99.90
61253;DHT22;47127;47.516;8.596;2022-11-04T07:06:51;9.70;99.90
61253;DHT22;47127;47.516;8.596;2022-11-04T07:09:16;9.70;99.90
61253;DHT22;47127;47.516;8.596;2022-11-04T07:11:42;9.70;99.90
61253;DHT22;47127;47.516;8.596;2022-11-04T07:14:08;9.70;99.90
61253;DHT22;47127;47.516;8.596;2022-11-04T07:16:34;9.70;99.90
61253;DHT22;47127;47.516;8.596;2022-11-04T07:18:59;9.80;99.90
61253;DHT22;47127;47.516;8.596;2022-11-04T07:21:25;9.90;99.90
61253;DHT22;47127;47.516;8.596;2022-11-04T07:23:50;10.00;99.90
61253;DHT22;47127;47.516;8.596;2022-11-04T07:26:16;10.00;99.90
61253;DHT22;47127;47.516;8.596;2022-11-04T07:28:41;10.00;99.90
61253;DHT22;47127;47.516;8.596;2022-11-04T07:31:07;10.00;99.90
61253;DHT22;47127;47.516;8.596;2022-11-04T07:33:33;9.90;99.90
61253;DHT22;47127;47.516;8.596;2022-11-04T07:36:02;10.00;99.90
61253;DHT22;47127;47.516;8.596;2022-11-04T07:38:29;10.10;99.90
61253;DHT22;47127;47.516;8.596;2022-11-04T07:40:56;10.20;99.90
61253;DHT22;47127;47.516;8.596;2022-11-04T07:43:21;10.20;99.90
61253;DHT22;47127;47.516;8.596;2022-11-04T07:45:46;10.30;99.90
61253;DHT22;47127;47.516;8.596;2022-11-04T07:48:12;10.40;99.90
61253;DHT22;47127;47.516;8.596;2022-11-04T07:50:38;10.40;99.90
61253;DHT22;47127;47.516;8.596;2022-11-04T07:53:04;10.40;99.90
61253;DHT22;47127;47.516;8.596;2022-11-04T07:55:30;10.50;99.90
61253;DHT22;47127;47.516;8.596;2022-11-04T07:57:57;10.50;99.90
61253;DHT22;47127;47.516;8.596;2022-11-04T08:00:22;10.50;99.90
61253;DHT22;47127;47.516;8.596;2022-11-04T08:02:48;10.60;99.90
61253;DHT22;47127;47.516;8.596;2022-11-04T08:05:13;10.70;99.90
61253;DHT22;47127;47.516;8.596;2022-11-04T08:07:39;10.80;99.90
61253;DHT22;47127;47.516;8.596;2022-11-04T08:10:05;10.80;99.90
61253;DHT22;47127;47.516;8.596;2022-11-04T08:12:30;10.90;99.90
61253;DHT22;47127;47.516;8.596;2022-11-04T08:14:57;10.90;99.90
61253;DHT22;47127;47.516;8.596;2022-11-04T08:17:22;10.90;99.90
61253;DHT22;47127;47.516;8.596;2022-11-04T08:19:48;10.90;99.90
61253;DHT22;47127;47.516;8.596;2022-11-04T08:22:13;11.00;99.90
61253;DHT22;47127;47.516;8.596;2022-11-04T08:24:39;11.10;99.90
61253;DHT22;47127;47.516;8.596;2022-11-04T08:27:04;11.10;99.90
61253;DHT22;47127;47.516;8.596;2022-11-04T08:29:32;11.20;99.90
61253;DHT22;47127;47.516;8.596;2022-11-04T08:31:58;11.30;99.90
61253;DHT22;47127;47.516;8.596;2022-11-04T08:34:23;11.30;99.90
61253;DHT22;47127;47.516;8.596;2022-11-04T08:36:48;11.40;99.90
61253;DHT22;47127;47.516;8.596;2022-11-04T08:39:14;11.40;99.90
61253;DHT22;47127;47.516;8.596;2022-11-04T08:41:41;11.40;99.90
61253;DHT22;47127;47.516;8.596;2022-11-04T08:44:07;11.40;99.90
61253;DHT22;47127;47.516;8.596;2022-11-04T08:46:34;11.40;99.90
61253;DHT22;47127;47.516;8.596;2022-11-04T08:49:00;11.40;99.90
61253;DHT22;47127;47.516;8.596;2022-11-04T08:51:26;11.40;99.90
61253;DHT22;47127;47.516;8.596;2022-11-04T08:53:51;11.50;99.90
61253;DHT22;47127;47.516;8.596;2022-11-04T08:56:27;11.50;99.90
61253;DHT22;47127;47.516;8.596;2022-11-04T08:58:54;11.60;99.90
61253;DHT22;47127;47.516;8.596;2022-11-04T09:01:20;11.60;99.90
61253;DHT22;47127;47.516;8.596;2022-11-04T09:03:46;11.70;99.90
61253;DHT22;47127;47.516;8.596;2022-11-04T09:06:13;11.80;99.90
61253;DHT22;47127;47.516;8.596;2022-11-04T09:08:39;11.80;99.90
61253;DHT22;47127;47.516;8.596;2022-11-04T09:11:09;11.80;99.90
61253;DHT22;47127;47.516;8.596;2022-11-04T09:13:35;11.80;99.90
61253;DHT22;47127;47.516;8.596;2022-11-04T09:16:00;11.80;99.90
61253;DHT22;47127;47.516;8.596;2022-11-04T09:18:26;11.90;99.90
61253;DHT22;47127;47.516;8.596;2022-11-04T09:20:51;11.90;99.90
61253;DHT22;47127;47.516;8.596;2022-11-04T09:23:17;12.00;99.90
61253;DHT22;47127;47.516;8.596;2022-11-04T09:25:42;12.00;99.90
61253;DHT22;47127;47.516;8.596;2022-11-04T09:28:08;12.10;99.90
61253;DHT22;47127;47.516;8.596;2022-11-04T09:30:34;12.20;99.90
61253;DHT22;47127;47.516;8.596;2022-11-04T09:33:00;12.20;99.90
61253;DHT22;47127;47.516;8.596;2022-11-04T09:35:25;12.30;99.90
61253;DHT22;47127;47.516;8.596;2022-11-04T09:37:52;12.30;99.90
61253;DHT22;47127;47.516;8.596;2022-11-04T09:40:18;12.30;99.90
61253;DHT22;47127;47.516;8.596;2022-11-04T09:45:28;12.20;99.90
61253;DHT22;47127;47.516;8.596;2022-11-04T09:47:56;12.30;99.90
61253;DHT22;47127;47.516;8.596;2022-11-04T09:50:23;12.40;99.90
61253;DHT22;47127;47.516;8.596;2022-11-04T09:52:52;12.30;99.90
61253;DHT22;47127;47.516;8.596;2022-11-04T09:55:23;12.10;99.90
61253;DHT22;47127;47.516;8.596;2022-11-04T09:57:52;12.10;99.90
61253;DHT22;47127;47.516;8.596;2022-11-04T10:00:18;12.10;99.90
61253;DHT22;47127;47.516;8.596;2022-11-04T10:02:50;12.20;99.90
61253;DHT22;47127;47.516;8.596;2022-11-04T10:05:19;12.30;99.90
61253;DHT22;47127;47.516;8.596;2022-11-04T10:12:52;12.50;99.90
61253;DHT22;47127;47.516;8.596;2022-11-04T10:23:26;13.10;99.90
61253;DHT22;47127;47.516;8.596;2022-11-04T10:28:42;13.00;99.90
61253;DHT22;47127;47.516;8.596;2022-11-04T10:31:14;13.10;99.90
61253;DHT22;47127;47.516;8.596;2022-11-04T10:33:48;13.00;99.90
61253;DHT22;47127;47.516;8.596;2022-11-04T10:36:14;12.90;99.90
61253;DHT22;47127;47.516;8.596;2022-11-04T10:38:47;12.80;99.90
61253;DHT22;47127;47.516;8.596;2022-11-04T10:41:25;12.90;99.90
61253;DHT22;47127;47.516;8.596;2022-11-04T10:44:02;12.90;99.90
61253;DHT22;47127;47.516;8.596;2022-11-04T10:52:01;13.20;99.90
61253;DHT22;47127;47.516;8.596;2022-11-04T10:54:26;13.40;99.90
61253;DHT22;47127;47.516;8.596;2022-11-04T10:56:53;13.40;99.90
61253;DHT22;47127;47.516;8.596;2022-11-04T10:59:23;13.50;99.90
61253;DHT22;47127;47.516;8.596;2022-11-04T11:01:56;13.40;99.90
61253;DHT22;47127;47.516;8.596;2022-11-04T11:04:31;13.40;99.90
61253;DHT22;47127;47.516;8.596;2022-11-04T11:06:58;13.50;99.90
61253;DHT22;47127;47.516;8.596;2022-11-04T11:09:25;13.50;99.90
61253;DHT22;47127;47.516;8.596;2022-11-04T11:11:55;13.50;99.90
61253;DHT22;47127;47.516;8.596;2022-11-04T11:16:53;13.40;99.90
61253;DHT22;47127;47.516;8.596;2022-11-04T11:19:20;13.40;99.90
61253;DHT22;47127;47.516;8.596;2022-11-04T11:21:49;13.40;99.90
61253;DHT22;47127;47.516;8.596;2022-11-04T11:26:44;13.60;99.90
61253;DHT22;47127;47.516;8.596;2022-11-04T11:32:22;14.00;99.90
61253;DHT22;47127;47.516;8.596;2022-11-04T11:34:51;13.90;99.90
61253;DHT22;47127;47.516;8.596;2022-11-04T11:37:21;14.00;99.90
61253;DHT22;47127;47.516;8.596;2022-11-04T11:39:47;14.00;99.90
61253;DHT22;47127;47.516;8.596;2022-11-04T11:42:13;14.10;99.90
61253;DHT22;47127;47.516;8.596;2022-11-04T11:44:50;14.00;99.90
61253;DHT22;47127;47.516;8.596;2022-11-04T11:50:06;13.80;99.90
61253;DHT22;47127;47.516;8.596;2022-11-04T11:52:38;13.90;99.90
61253;DHT22;47127;47.516;8.596;2022-11-04T11:55:05;14.00;99.90
61253;DHT22;47127;47.516;8.596;2022-11-04T11:57:39;14.00;99.90
61253;DHT22;47127;47.516;8.596;2022-11-04T12:00:12;14.10;99.90
61253;DHT22;47127;47.516;8.596;2022-11-04T12:02:43;14.40;99.60
61253;DHT22;47127;47.516;8.596;2022-11-04T12:05:10;14.20;99.70
61253;DHT22;47127;47.516;8.596;2022-11-04T12:10:06;13.70;99.90
61253;DHT22;47127;47.516;8.596;2022-11-04T12:15:07;13.50;99.90
61253;DHT22;47127;47.516;8.596;2022-11-04T12:20:17;13.50;99.90
61253;DHT22;47127;47.516;8.596;2022-11-04T12:25:19;13.50;99.90
61253;DHT22;47127;47.516;8.596;2022-11-04T12:27:51;13.60;99.90
61253;DHT22;47127;47.516;8.596;2022-11-04T12:30:22;13.60;99.90
61253;DHT22;47127;47.516;8.596;2022-11-04T12:35:23;14.20;99.90
61253;DHT22;47127;47.516;8.596;2022-11-04T12:38:03;14.50;99.80
61253;DHT22;47127;47.516;8.596;2022-11-04T12:40:43;14.60;99.40
61253;DHT22;47127;47.516;8.596;2022-11-04T12:43:14;14.50;99.90
61253;DHT22;47127;47.516;8.596;2022-11-04T12:45:48;14.00;99.90
61253;DHT22;47127;47.516;8.596;2022-11-04T12:48:25;13.80;99.90
61253;DHT22;47127;47.516;8.596;2022-11-04T12:55:54;13.70;99.90
61253;DHT22;47127;47.516;8.596;2022-11-04T13:01:12;13.20;99.90
61253;DHT22;47127;47.516;8.596;2022-11-04T13:06:09;13.10;99.90
61253;DHT22;47127;47.516;8.596;2022-11-04T13:08:41;13.10;99.90
61253;DHT22;47127;47.516;8.596;2022-11-04T13:11:21;12.90;99.90
61253;DHT22;47127;47.516;8.596;2022-11-04T13:14:03;13.10;99.90
61253;DHT22;47127;47.516;8.596;2022-11-04T13:16:33;13.30;99.90
61253;DHT22;47127;47.516;8.596;2022-11-04T13:18:59;13.40;99.90
61253;DHT22;47127;47.516;8.596;2022-11-04T13:21:26;13.40;99.90
61253;DHT22;47127;47.516;8.596;2022-11-04T13:24:00;13.40;99.90
61253;DHT22;47127;47.516;8.596;2022-11-04T13:26:26;13.20;99.90
61253;DHT22;47127;47.516;8.596;2022-11-04T13:28:55;13.40;99.90
61253;DHT22;47127;47.516;8.596;2022-11-04T13:34:15;13.70;99.30
61253;DHT22;47127;47.516;8.596;2022-11-04T13:36:47;13.60;99.20
61253;DHT22;47127;47.516;8.596;2022-11-04T13:39:17;13.50;99.00
61253;DHT22;47127;47.516;8.596;2022-11-04T13:41:51;13.40;99.30
61253;DHT22;47127;47.516;8.596;2022-11-04T13:44:27;13.40;99.40
61253;DHT22;47127;47.516;8.596;2022-11-04T13:46:54;13.60;99.50
61253;DHT22;47127;47.516;8.596;2022-11-04T13:49:25;13.40;99.40
61253;DHT22;47127;47.516;8.596;2022-11-04T13:52:05;13.40;99.80
61253;DHT22;47127;47.516;8.596;2022-11-04T13:54:32;13.40;99.90
61253;DHT22;47127;47.516;8.596;2022-11-04T13:57:10;13.30;99.90
61253;DHT22;47127;47.516;8.596;2022-11-04T13:59:37;13.40;99.90
61253;DHT22;47127;47.516;8.596;2022-11-04T14:04:44;13.20;99.90
61253;DHT22;47127;47.516;8.596;2022-11-04T14:07:11;13.20;99.90
61253;DHT22;47127;47.516;8.596;2022-11-04T14:12:16;13.10;99.90
61253;DHT22;47127;47.516;8.596;2022-11-04T14:14:45;13.10;99.90
61253;DHT22;47127;47.516;8.596;2022-11-04T14:22:46;13.30;99.90
61253;DHT22;47127;47.516;8.596;2022-11-04T14:27:57;13.60;99.90
61253;DHT22;47127;47.516;8.596;2022-11-04T14:33:27;14.00;99.90
61253;DHT22;47127;47.516;8.596;2022-11-04T14:35:53;14.20;99.90
61253;DHT22;47127;47.516;8.596;2022-11-04T14:38:26;14.20;99.90
61253;DHT22;47127;47.516;8.596;2022-11-04T14:43:37;14.50;99.90
61253;DHT22;47127;47.516;8.596;2022-11-04T14:46:04;14.70;99.70
61253;DHT22;47127;47.516;8.596;2022-11-04T14:48:29;14.70;99.20
61253;DHT22;47127;47.516;8.596;2022-11-04T14:50:56;14.80;99.30
61253;DHT22;47127;47.516;8.596;2022-11-04T14:53:29;14.80;99.60
61253;DHT22;47127;47.516;8.596;2022-11-04T14:56:03;14.70;99.10
61253;DHT22;47127;47.516;8.596;2022-11-04T14:58:29;14.40;99.40
61253;DHT22;47127;47.516;8.596;2022-11-04T15:00:57;14.40;99.80
61253;DHT22;47127;47.516;8.596;2022-11-04T15:03:24;14.30;99.90
61253;DHT22;47127;47.516;8.596;2022-11-04T15:05:51;14.00;99.90
61253;DHT22;47127;47.516;8.596;2022-11-04T15:11:11;13.70;99.90
61253;DHT22;47127;47.516;8.596;2022-11-04T15:13:38;13.60;99.90
61253;DHT22;47127;47.516;8.596;2022-11-04T15:16:21;13.60;99.90
61253;DHT22;47127;47.516;8.596;2022-11-04T15:18:48;13.40;99.90
61253;DHT22;47127;47.516;8.596;2022-11-04T15:21:14;13.30;99.90
61253;DHT22;47127;47.516;8.596;2022-11-04T15:23:41;13.10;99.90
61253;DHT22;47127;47.516;8.596;2022-11-04T15:26:21;13.00;99.90
61253;DHT22;47127;47.516;8.596;2022-11-04T15:28:47;12.80;99.90
61253;DHT22;47127;47.516;8.596;2022-11-04T15:31:14;12.80;99.90
61253;DHT22;47127;47.516;8.596;2022-11-04T15:33:42;12.70;99.90
61253;DHT22;47127;47.516;8.596;2022-11-04T15:36:11;12.60;99.90
61253;DHT22;47127;47.516;8.596;2022-11-04T15:38:38;12.50;99.90
61253;DHT22;47127;47.516;8.596;2022-11-04T15:41:05;12.60;99.90
61253;DHT22;47127;47.516;8.596;2022-11-04T15:43:49;12.40;99.90
61253;DHT22;47127;47.516;8.596;2022-11-04T15:46:18;12.40;99.90
61253;DHT22;47127;47.516;8.596;2022-11-04T15:48:58;12.50;99.90
61253;DHT22;47127;47.516;8.596;2022-11-04T15:51:23;12.40;99.90
61253;DHT22;47127;47.516;8.596;2022-11-04T15:53:53;12.20;99.90
61253;DHT22;47127;47.516;8.596;2022-11-04T15:56:21;12.20;99.90
61253;DHT22;47127;47.516;8.596;2022-11-04T15:58:47;12.20;99.90
61253;DHT22;47127;47.516;8.596;2022-11-04T16:01:13;11.80;99.90
61253;DHT22;47127;47.516;8.596;2022-11-04T16:03:39;11.50;99.90
61253;DHT22;47127;47.516;8.596;2022-11-04T16:06:06;11.40;99.90
61253;DHT22;47127;47.516;8.596;2022-11-04T16:08:32;11.30;99.90
61253;DHT22;47127;47.516;8.596;2022-11-04T16:11:07;11.10;99.90
61253;DHT22;47127;47.516;8.596;2022-11-04T16:13:33;11.00;99.90
61253;DHT22;47127;47.516;8.596;2022-11-04T16:18:41;11.10;99.90
61253;DHT22;47127;47.516;8.596;2022-11-04T16:21:50;11.00;99.90
61253;DHT22;47127;47.516;8.596;2022-11-04T16:26:25;11.20;99.90
61253;DHT22;47127;47.516;8.596;2022-11-04T16:28:52;11.20;99.90
61253;DHT22;47127;47.516;8.596;2022-11-04T16:33:46;11.20;99.90
61253;DHT22;47127;47.516;8.596;2022-11-04T16:36:13;11.20;99.90
61253;DHT22;47127;47.516;8.596;2022-11-04T16:39:00;11.20;99.90
61253;DHT22;47127;47.516;8.596;2022-11-04T16:41:33;11.20;99.90
61253;DHT22;47127;47.516;8.596;2022-11-04T16:43:59;11.30;99.90
61253;DHT22;47127;47.516;8.596;2022-11-04T16:46:24;11.30;99.90
61253;DHT22;47127;47.516;8.596;2022-11-04T16:48:50;11.30;99.90
61253;DHT22;47127;47.516;8.596;2022-11-04T16:51:16;11.40;99.90
61253;DHT22;47127;47.516;8.596;2022-11-04T16:53:42;11.40;99.90
61253;DHT22;47127;47.516;8.596;2022-11-04T16:56:08;11.30;99.90
61253;DHT22;47127;47.516;8.596;2022-11-04T16:58:33;11.20;99.90
61253;DHT22;47127;47.516;8.596;2022-11-04T17:00:59;11.20;99.90
61253;DHT22;47127;47.516;8.596;2022-11-04T17:03:24;11.20;99.90
61253;DHT22;47127;47.516;8.596;2022-11-04T17:05:51;11.00;99.90
61253;DHT22;47127;47.516;8.596;2022-11-04T17:08:18;11.00;99.90
61253;DHT22;47127;47.516;8.596;2022-11-04T17:10:44;11.00;99.90
61253;DHT22;47127;47.516;8.596;2022-11-04T17:13:09;11.00;99.90
61253;DHT22;47127;47.516;8.596;2022-11-04T17:15:35;11.00;99.90
61253;DHT22;47127;47.516;8.596;2022-11-04T17:18:01;11.00;99.90
61253;DHT22;47127;47.516;8.596;2022-11-04T17:20:26;11.00;99.90
61253;DHT22;47127;47.516;8.596;2022-11-04T17:22:52;11.00;99.90
61253;DHT22;47127;47.516;8.596;2022-11-04T17:25:18;11.10;99.90
61253;DHT22;47127;47.516;8.596;2022-11-04T17:27:44;11.00;99.90
61253;DHT22;47127;47.516;8.596;2022-11-04T17:30:10;11.00;99.90
61253;DHT22;47127;47.516;8.596;2022-11-04T17:32:37;10.90;99.90
61253;DHT22;47127;47.516;8.596;2022-11-04T17:35:02;10.90;99.90
61253;DHT22;47127;47.516;8.596;2022-11-04T17:37:28;10.90;99.90
61253;DHT22;47127;47.516;8.596;2022-11-04T17:39:54;10.90;99.90
61253;DHT22;47127;47.516;8.596;2022-11-04T17:42:19;10.90;99.90